DFW Logo
DALLAS/FORT WORTH METROPLEX WEATHER
67°F
DFW AIRPORT OBSERVATIONS
WINDPRESSURE
STATIONDATETIMETEMPDEWRHWCHIDIRSPEEDVISIBILITYWEATHERCLOUDSSLSTALTRAINFLIGHT RULES
(F)(F)(%)(F)(F)(mph)(miles)(x100 ft)(mb)(inHg)(inHg)(in)
KDFW2/20/20249:53 pm675157S1510.00Partly CloudySCT250 1017.7029.4930.070.00VFR
KDFW2/20/20248:53 pm695051S1010.00Mostly CloudyBKN250 1017.6029.4830.060.00VFR
KDFW2/20/20247:53 pm714946S1410.00Mostly CloudyBKN250 1017.6029.4830.060.00VFR
KDFW2/20/20246:53 pm724843S1310.00Mostly CloudyBKN250 1017.3029.4730.050.00VFR
KDFW2/20/20245:53 pm764635S15G2410.00Mostly CloudyBKN250 1016.8029.4630.040.00VFR
KDFW2/20/20244:53 pm784632S1710.00Mostly CloudyBKN250 1016.8029.4630.040.00VFR
KDFW2/20/20243:53 pm814326S1610.00Mostly CloudyBKN250 1017.2029.4830.060.00VFR
KDFW2/20/20242:53 pm804327S21G2810.00WindySCT250 1017.7029.4930.070.00VFR
KDFW2/20/20241:53 pm794530S1410.00Mostly SunnyFEW250 1018.5029.5130.090.00VFR
KDFW2/20/202412:53 pm744434S710.00Partly CloudySCT250 1020.3029.5630.140.00VFR
KDFW2/20/202411:53 am694644SSE810.00Mostly CloudyBKN250 1021.4029.5830.170.00VFR
KDFW2/20/202410:53 am644652S710.00Mostly CloudyFEW5 BKN250 1021.9029.6030.190.00VFR
KDFW2/20/20249:53 am594560SSE710.00Partly CloudySCT250 1021.6029.5930.180.00VFR
KDFW2/20/20248:53 am534472SSE510.00Partly CloudySCT250 1021.6029.5930.180.00VFR
KDFW2/20/20247:53 am474386Calm10.00Mostly SunnyFEW250 1021.3029.5830.170.00VFR
KDFW2/20/20246:53 am434089Calm10.00Mostly ClearFEW250 1020.6029.5630.150.00VFR
KDFW2/20/20245:53 am454186Calm10.00Mostly ClearFEW250 1019.9029.5530.130.00VFR
KDFW2/20/20244:53 am454083Calm10.00Mostly ClearFEW250 1019.3029.5330.110.00VFR
KDFW2/20/20243:53 am46407944SSW510.00ClearCLR0 1018.8029.5230.100.00VFR
KDFW2/20/20242:53 am46407944S510.00ClearCLR0 1019.1029.5230.100.00VFR
KDFW2/20/20241:53 am48407445S710.00ClearCLR0 1019.4029.5330.110.00VFR
KDFW2/20/202412:53 am47407744SSW610.00ClearCLR0 1019.5029.5330.110.00VFR
Updated: Feb 20, 2024 - 9:53 pm

STATIONDATETIMEMETAR
KDFW2/20/20249:53 pmKDFW 210353Z 18013KT 10SM SCT250 19/11 A3007 RMK AO2 SLP177 T01940106
KDFW2/20/20248:53 pmKDFW 210253Z 17009KT 10SM BKN250 21/10 A3006 RMK AO2 SLP176 T02060100 51007
KDFW2/20/20247:53 pmKDFW 210153Z 17012KT 10SM BKN250 22/09 A3006 RMK AO2 SLP176 T02170094
KDFW2/20/20246:53 pmKDFW 210053Z 17011KT 10SM BKN250 22/09 A3005 RMK AO2 SLP173 T02220089
KDFW2/20/20245:53 pmKDFW 202353Z 18013G21KT 10SM BKN250 24/08 A3004 RMK AO2 SLP168 T02440078 10272 20206 55008
KDFW2/20/20244:53 pmKDFW 202253Z 18015KT 10SM BKN250 26/08 A3004 RMK AO2 SLP168 T02560078
KDFW2/20/20243:53 pmKDFW 202153Z 18014KT 10SM BKN250 27/06 A3006 RMK AO2 PK WND 19026/2116 SLP172 T02720061
KDFW2/20/20242:53 pmKDFW 202053Z 18018G24KT 10SM SCT250 27/06 A3007 RMK AO2 SLP177 T02670061 56035
KDFW2/20/20241:53 pmKDFW 201953Z 17012KT 10SM FEW250 26/07 A3009 RMK AO2 SLP185 T02610072
KDFW2/20/202412:53 pmKDFW 201853Z 17006KT 10SM SCT250 23/07 A3014 RMK AO2 SLP203 T02330067
KDFW2/20/202411:53 amKDFW 201753Z 15007KT 10SM BKN250 21/08 A3017 RMK AO2 SLP214 T02060078 10206 20056 58001
KDFW2/20/202410:53 amKDFW 201653Z 18006KT 10SM FEW005 BKN250 18/08 A3019 RMK AO2 SLP219 FU FEW005 W-NW T01780078
KDFW2/20/20249:53 amKDFW 201553Z 16006KT 10SM SCT250 15/07 A3018 RMK AO2 SLP216 T01500072
KDFW2/20/20248:53 amKDFW 201453Z 15004KT 10SM SCT250 12/07 A3018 RMK AO2 SLP216 T01170067 51015
KDFW2/20/20247:53 amKDFW 201353Z 00000KT 10SM FEW250 08/06 A3017 RMK AO2 SLP213 T00830061
KDFW2/20/20246:53 amKDFW 201253Z 00000KT 10SM FEW250 06/04 A3015 RMK AO2 SLP206 T00610044
KDFW2/20/20245:53 amKDFW 201153Z 00000KT 10SM FEW250 07/05 A3013 RMK AO2 SLP199 T00720050 10106 20072 53008
KDFW2/20/20244:53 amKDFW 201053Z 00000KT 10SM FEW250 07/04 A3011 RMK AO2 SLP193 T00720044
KDFW2/20/20243:53 amKDFW 200953Z 21004KT 10SM CLR 08/04 A3010 RMK AO2 SLP188 T00780044
KDFW2/20/20242:53 amKDFW 200853Z 19004KT 10SM CLR 08/04 A3010 RMK AO2 SLP191 T00780044 58004
KDFW2/20/20241:53 amKDFW 200753Z 19006KT 10SM CLR 09/04 A3011 RMK AO2 SLP194 T00890044
KDFW2/20/202412:53 amKDFW 200653Z 21005KT 10SM CLR 08/04 A3011 RMK AO2 SLP195 T00830044
Updated: Feb 20, 2024 - 9:53 pm